Airfield :
LOGIN :

Register | Disclaimer

   EN    FR    IT 

 










Legend :    VFR   Marginal VFR   IFR   Intensive IFR   Very Intensive IFR
Visi :
Ceiling :
>= 8 km
>= 3000ft
5 to 8 km
1000 to 3000 ft
1500m to 5 km
500 to 1000 ft
800 to 1500m
200 to 500 ft
< 800m
< 200 ft
Symbols :   Thunderstorms  Fog  Heavy snow  Heavy precipitations  Wind > 20 kt
SIGMETs :     Misc.  Thunderstorms  Icing  Turbulence  Mountain Waves  Volcanic Ashes






- Airport Elevation : 16 ft
- IATA code : LPX


EVLA - Liepaja

CURRENT METAR :
  • 131550Z AUTO 25008KT 9999 BKN061/// 20/14 Q1017

EXPIRED METARs :
  • 131520Z AUTO 25009KT 9999 SCT060/// SCT073/// 20/14 Q1017
  • 131450Z AUTO 24009KT 9999 FEW076/// 21/15 Q1017
  • 131420Z AUTO 24008KT 9999 FEW067/// BKN090/// 21/14 Q1017
  • 131350Z AUTO 24008KT 9999 FEW067/// BKN100/// 20/14 Q1017
  • 131320Z AUTO 23010KT 9999 BKN075/// BKN100/// 20/13 Q1018

TAF TAF EVLA
Valid from the 13 at 15:00 until the 14 at 15:00 UTC


131403Z 1315/1415 24007KT CAVOK
PROB40
TEMPO 1320/1405 3000 MIFG BR



MET'MAP, your aeronautical weather chart ! - Copyright ORBIFLY December 2007 - Disclaimer

ORBIFLY MET'MAP TEAM :

Programming & Development : Alexandra Zaïnal
Concept & original design : Baudouin d'Aumeries
Assistance for programming : Marc-Olivier Méhu
Technical & hardware support : Manuel Goepfert

Contact : metmap@orbifly.com




SOURCES & CREDITS :

   NOAA